Flight Track Log - Related Links

Times and Time Zones

All times are in EDT time to prevent confusion due to time zone crossing. See the N427SE flight status page for this flight to view local times or setup timezone preferences in your user account.

Time Position Orientation Groundspeed Altitude Reporting Facility
EDT Latitude Longitude Course Direction KTS MPH feet Rate Location/Type
Wed 02:03:30 PM 34.7389 -92.2197 142° Southeast 145 167 700  Level Memphis Center
Wed 02:05:13 PM 34.7061 -92.1886 142° Southeast 158 182 3,800 1,871 Climbing Memphis Center
Wed 02:06:20 PM 34.6561 -92.1875 179° South 157 181 6,000 1,918 Climbing Memphis Center
Wed 02:06:50 PM 34.6350 -92.1897 185° South 157 181 6,900 1,864 Climbing Memphis Center
Wed 02:08:03 PM 34.5808 -92.1911 181° South 165 190 9,200 1,843 Climbing Memphis Center
Wed 02:09:10 PM 34.5286 -92.1925 181° South 163 188 11,200 1,701 Climbing Memphis Center
Wed 02:10:10 PM 34.4847 -92.1939 181° South 165 190 12,800 675 Climbing Memphis Center
Wed 02:11:50 PM 34.3953 -92.1844 175° South 234 269 13,000 75 Climbing Memphis Center
Wed 02:12:50 PM 34.3264 -92.1781 176° South 234 269 13,000  Level Memphis Center
Wed 02:13:50 PM 34.2578 -92.1742 177° South 239 275 13,000  Level Memphis Center
Wed 02:14:50 PM 34.1931 -92.1653 174° South 239 275 13,000  Level Memphis Center
Wed 02:15:50 PM 34.1222 -92.1636 179° South 244 281 13,000  Level Memphis Center
Wed 02:16:50 PM 34.0556 -92.1597 177° South 244 281 13,000  Level Memphis Center
Wed 02:17:50 PM 33.9886 -92.1558 177° South 250 288 13,000  Level Memphis Center
Wed 02:18:50 PM 33.9200 -92.1519 177° South 250 288 13,000  Level Memphis Center
Wed 02:19:50 PM 33.8511 -92.1431 174° South 250 288 13,000 -50 Level Memphis Center
Wed 02:20:50 PM 33.7864 -92.1392 177° South 250 288 12,900 -50 Descending Memphis Center
Wed 02:21:50 PM 33.7178 -92.1328 176° South 244 281 12,900  Level Memphis Center
Wed 02:22:50 PM 33.6511 -92.1289 177° South 249 287 12,900  Level Memphis Center
Wed 02:23:50 PM 33.5800 -92.1225 176° South 255 293 12,900 50 Level Memphis Center
Wed 02:24:50 PM 33.5156 -92.1164 175° South 249 287 13,000 -291 Climbing Memphis Center
Wed 02:26:00 PM 33.4453 -92.1000 180° South  Level FlightAware Approximate
Wed 02:26:35 PM 33.3911 -92.1044 180° South 242 278 12,100  Level Fort Worth Center
Wed 02:27:35 PM 33.3264 -92.0986 176° South 237 273 11,200 -908 Descending Fort Worth Center
Wed 02:28:34 PM 33.2594 -92.0950 177° South 237 273 10,300 -900 Descending Fort Worth Center
Wed 02:29:35 PM 33.1881 -92.0869 175° South 242 278 9,400 -893 Descending Fort Worth Center
Wed 02:30:35 PM 33.1192 -92.0836 178° South 242 278 8,500 -900 Descending Fort Worth Center
Wed 02:31:35 PM 33.0519 -92.0778 176° South 248 285 7,600 -950 Descending Fort Worth Center
Wed 02:32:35 PM 32.9872 -92.0742 177° South 248 285 6,600 -857 Descending Fort Worth Center
Wed 02:33:34 PM 32.9203 -92.0683 176° South 243 280 5,900 -706 Descending Fort Worth Center
Wed 02:34:34 PM 32.8553 -92.0622 175° South 237 273 5,200 -694 Descending Fort Worth Center
Wed 02:35:35 PM 32.7944 -92.0561 175° South 237 273 4,500 -397 Descending Fort Worth Center
Wed 02:36:35 PM 32.7317 -92.0500 175° South 237 273 4,400 1,250 Descending Fort Worth Center
Wed 02:37:35 PM 32.6644 -92.0417 174° South 237 273 7,000 1,300 Climbing Fort Worth Center
Wed 02:38:35 PM 32.5953 -92.0333 174° South 237 273 7,000  Level Fort Worth Center
Wed 02:39:35 PM 32.5281 -92.0250 174° South 237 273 7,000  Level Fort Worth Center
Wed 02:40:35 PM 32.5133 -92.0233 175° South 237 273 7,000  Level Fort Worth Center
Wed 02:41:35 PM 32.5133 -92.0233 320° Northwest 237 273 7,000  Level Fort Worth Center
Wed 02:43:35 PM 32.5133 -92.0233 320° Northwest 237 273 7,000  Level Fort Worth Center

Login

Don't have an account? Register now (free) for customized features, flight alerts, and more!